METAR AND TAF INFORMATION
METAR FOR KLXY
ADDS - METARS form results

(2236 UTC 18 October 2018)
Data provider http://aviationweather.gov/metar/data/
 
METAR text: KLXY 182215Z AUTO 03006KT 10SM OVC026 17/12 A3026 RMK AO2 T01710124
Conditions at: KLXY (MEXIA LIMESTONE , TX, US) observed 2215 UTC 18 October 2018
Temperature: 17.1°C (63°F)
Dewpoint: 12.4°C (54°F) [RH = 74%]
Pressure (altimeter): 30.26 inches Hg (1024.8 mb)
Winds: from the NNE (30 degrees) at 7 MPH (6 knots; 3.1 m/s)
Visibility: 10 or more miles (16+ km)
Ceiling: 2600 feet AGL
Clouds: overcast cloud deck at 2600 feet AGL
Weather: automated observation with no human augmentation;
there may or may not be significant weather present at this time

METAR text: KLXY 182155Z AUTO 03004KT 10SM OVC026 17/12 A3026 RMK AO2 T01730122
Conditions at: KLXY (MEXIA LIMESTONE , TX, US) observed 2155 UTC 18 October 2018
Temperature: 17.3°C (63°F)
Dewpoint: 12.2°C (54°F) [RH = 72%]
Pressure (altimeter): 30.26 inches Hg (1024.8 mb)
Winds: from the NNE (30 degrees) at 5 MPH (4 knots; 2.1 m/s)
Visibility: 10 or more miles (16+ km)
Ceiling: 2600 feet AGL
Clouds: overcast cloud deck at 2600 feet AGL
Weather: automated observation with no human augmentation;
there may or may not be significant weather present at this time

 AIRPORT MAP

 RUNWAY INFORMATION
Runway 18 Runway length 4002 ft Runway width 60 ft
Runway elevation 544 ft Runway displaced threshold 0 ft Runway heading 189
Runway 36 Runway length 4002 ft Runway width 60 ft
Runway elevation 533 ft Runway displaced threshold 0 ft Runway heading 9

 AIRPORT FREQUENCIES
Type A/D Name WACO APP/D Frequency 135.2 MHZ
Type UNIC Name CTAF/UNICO Frequency 122.8 MHZ

 AIRPORT NEAR NAVIGATION AIDS


... ... ... ... ... ...

© Copyright 2017 All Rights Reserved. Virtual NATO is in no way affiliated with NATO or any of the NATO Members

NATO Virtual is a volunteer not for profit group of friends with the common interest in promoting enjoyment and education through the simulation of military operations and procedure through the use of operating standards within several flight simulation platforms.

Powered by Virtual Airlines Manager [v2.6.2] Customized by Virtual NATO